Albatros — C6CN4 — position and weather

sailwx.info

Track history (hours):
 
Tides and Currents Weather Stations Pressure Air Temp Water Temp Dewpoint Dewpoint Depression Visibility Wind Speed Wind Dir Waves Ship Positions

Albatros

Last reported at 2017-Jul-27 00:02 UTC. Time now 2017-Jul-27 00:35 UTC.
Position N 61°01' E 004°14'.

Length 205.5 m; beam 25.2 m; draft 7.6 m.

Type: Passenger vessel. MMSI: 308784000.

Date/timePositionNaut miles runAvg speedWind from/ knotsBaromVisibWave heightAir tempDewpointWater temp
2017-Jul-27 00:02N 61°01' E 004°14'116.5
2017-Jul-27 00:00N 61°00' E 004°15'816.8
2017-Jul-26 23:31N 60°52' E 004°18'816.7
2017-Jul-26 23:00N 60°44' E 004°21'816.5
2017-Jul-26 22:30N 60°36' E 004°24'816.6
2017-Jul-26 22:00N 60°28' E 004°28'816.9
2017-Jul-26 21:30N 60°19' E 004°32'917.1
2017-Jul-26 21:00N 60°11' E 004°35'816.7
2017-Jul-26 20:30N 60°03' E 004°40'816.5
2017-Jul-26 20:00N 59°59' E 004°54'715.1
2017-Jul-26 19:30N 59°57' E 005°09'713.8
2017-Jul-26 19:01N 59°59' E 005°22'816.0
2017-Jul-26 18:30N 59°52' E 005°32'611.4
2017-Jul-26 18:00N 59°47' E 005°31'1 1.3
2017-Jul-26 17:30N 59°47' E 005°30'0 0.0
2017-Jul-26 17:00N 59°47' E 005°30'0 0.0
2017-Jul-26 16:30N 59°47' E 005°30'0 0.0
2017-Jul-26 16:00N 59°47' E 005°30'0 0.0
2017-Jul-26 15:30N 59°47' E 005°30'0 0.0
2017-Jul-26 15:00N 59°47' E 005°30'0 0.0
2017-Jul-26 14:00N 59°47' E 005°30'0 0.3
2017-Jul-26 13:30N 59°47' E 005°30'5 9.7
2017-Jul-26 13:00N 59°50' E 005°38'816.3
2017-Jul-26 12:30N 59°56' E 005°49'510.8
2017-Jul-26 11:59N 59°59' E 005°58'817.0
2017-Jul-26 11:30N 60°07' E 006°05'815.7
2017-Jul-26 11:00N 60°14' E 006°09'917.6
2017-Jul-26 10:30N 60°22' E 006°19'917.7
2017-Jul-26 10:00N 60°27' E 006°34'815.7
2017-Jul-26 09:30N 60°28' E 006°49'7 1.5
2017-Jul-26 04:31N 60°28' E 007°04'0 0.6
2017-Jul-26 04:29N 60°28' E 007°04'2 3.2
2017-Jul-26 04:00N 60°29' E 007°02'611.4
2017-Jul-26 03:30N 60°29' E 006°50'713.6
2017-Jul-26 03:00N 60°26' E 006°37'816.1
2017-Jul-26 02:30N 60°23' E 006°22'917.3
2017-Jul-26 02:00N 60°16' E 006°12'816.1
2017-Jul-26 01:30N 60°09' E 006°05'816.4
2017-Jul-26 01:00N 60°02' E 005°57'815.5
2017-Jul-26 00:30N 59°56' E 005°46'815.9
2017-Jul-26 00:00N 59°49' E 005°37'815.9
2017-Jul-25 23:30N 59°43' E 005°28'816.1
2017-Jul-25 23:00N 59°37' E 005°17'815.4
2017-Jul-25 22:30N 59°30' E 005°12'815.2
2017-Jul-25 22:00N 59°23' E 005°07'815.8
2017-Jul-25 21:30N 59°15' E 005°06'815.3
2017-Jul-25 21:00N 59°07' E 005°10'612.1
2017-Jul-25 20:31N 59°07' E 005°21'5 9.3
2017-Jul-25 20:01N 59°03' E 005°16'612.0
2017-Jul-25 19:31N 58°58' E 005°11'611.5
2017-Jul-25 19:01N 58°53' E 005°06'5 9.8
2017-Jul-25 18:30N 58°48' E 005°06'510.1
2017-Jul-25 18:01N 58°43' E 005°05'611.1
2017-Jul-25 17:30N 58°37' E 005°05'611.2
2017-Jul-25 17:00N 58°31' E 005°04'611.3
2017-Jul-25 16:30N 58°26' E 005°04'611.6
2017-Jul-25 16:00N 58°20' E 005°03'611.6
2017-Jul-25 15:30N 58°14' E 005°03'611.1
2017-Jul-25 15:00N 58°09' E 005°02'17812.8
2017-Jul-25 01:09N 55°19' E 006°37'213.7
2017-Jul-25 01:00N 55°17' E 006°38'713.7
2017-Jul-25 00:30N 55°10' E 006°43'713.5
2017-Jul-25 00:00N 55°04' E 006°48'713.3
2017-Jul-24 23:30N 54°58' E 006°52'713.1
2017-Jul-24 23:00N 54°52' E 006°57'612.9
2017-Jul-24 22:30N 54°46' E 007°02'712.7
2017-Jul-24 21:55N 54°40' E 007°07'5413.9
2017-Jul-24 18:03N 53°52' E 007°51'111.6
2017-Jul-24 17:58N 53°52' E 007°53'817.2
2017-Jul-24 17:30N 53°50' E 008°06'919.2
2017-Jul-24 17:01N 53°43' E 008°17'1019.5
2017-Jul-24 16:30N 53°37' E 008°30'4 6.9
2017-Jul-24 15:58N 53°33' E 008°33'0 0.0
2017-Jul-24 12:58N 53°33' E 008°33'0 0.0
2017-Jul-24 12:25N 53°33' E 008°33'0 0.0
2017-Jul-24 11:58N 53°33' E 008°33'0 0.0
2017-Jul-24 11:28N 53°33' E 008°33'0 0.0
2017-Jul-24 10:58N 53°33' E 008°33'0 0.0
2017-Jul-24 10:28N 53°33' E 008°33'0 0.0
2017-Jul-24 09:58N 53°33' E 008°33'0 0.0
2017-Jul-24 09:28N 53°33' E 008°33'0 0.0
2017-Jul-24 08:58N 53°33' E 008°33'0 0.0
2017-Jul-24 08:28N 53°33' E 008°33'0 0.0
2017-Jul-24 07:46N 53°33' E 008°33'0 0.0
2017-Jul-24 07:28N 53°33' E 008°33'0 0.0
2017-Jul-24 06:58N 53°33' E 008°33'0 0.0
2017-Jul-24 06:28N 53°33' E 008°33'0 0.0
2017-Jul-24 05:58N 53°33' E 008°33'0 0.0
2017-Jul-24 05:28N 53°33' E 008°33'1 3.0
2017-Jul-24 05:00N 53°35' E 008°32'611.2
2017-Jul-24 04:30N 53°39' E 008°25'714.3
2017-Jul-24 04:00N 53°43' E 008°16'714.3
2017-Jul-24 03:30N 53°48' E 008°08'714.8
2017-Jul-24 03:00N 53°52' E 007°56'713.6
2017-Jul-24 02:30N 53°53' E 007°45'714.9
2017-Jul-24 02:00N 53°59' E 007°37'612.1
2017-Jul-24 01:30N 54°04' E 007°32'4312.5
2017-Jul-23 22:03N 54°40' E 006°52'214.0
2017-Jul-23 21:53N 54°42' E 006°50'614.0
2017-Jul-23 21:30N 54°47' E 006°45'714.1
2017-Jul-23 21:00N 54°53' E 006°38'1213.9
2017-Jul-23 20:09N 55°03' E 006°29'213.7
2017-Jul-23 20:01N 55°05' E 006°28'23112.8
2017-Jul-23 01:57N 58°42' E 004°02'6714.0
2017-Jul-22 21:10N 59°46' E 004°37'214.3
2017-Jul-22 21:00N 59°48' E 004°39'714.2
2017-Jul-22 20:30N 59°55' E 004°45'714.0
2017-Jul-22 20:00N 60°01' E 004°50'713.4
2017-Jul-22 19:30N 60°08' E 004°56'815.5
2017-Jul-22 18:59N 60°11' E 005°10'817.1
2017-Jul-22 18:30N 60°19' E 005°12'510.6
2017-Jul-22 18:00N 60°24' E 005°15'2 3.1
2017-Jul-22 17:30N 60°24' E 005°19'0 0.0
2017-Jul-22 17:00N 60°24' E 005°19'0 0.0
2017-Jul-22 16:30N 60°24' E 005°19'0 0.0
2017-Jul-22 16:00N 60°24' E 005°19'0 0.0
2017-Jul-22 15:30N 60°24' E 005°19'0 0.0
2017-Jul-22 15:00N 60°24' E 005°19'0 0.0
2017-Jul-22 14:00N 60°24' E 005°19'0 0.0
2017-Jul-22 13:30N 60°24' E 005°19'0 0.0
2017-Jul-22 13:00N 60°24' E 005°19'0 0.0
2017-Jul-22 12:30N 60°24' E 005°19'0 0.0
2017-Jul-22 12:00N 60°24' E 005°19'0 0.0
2017-Jul-22 11:30N 60°24' E 005°19'0 0.0
2017-Jul-22 11:00N 60°24' E 005°19'0 0.0
2017-Jul-22 10:30N 60°24' E 005°19'0 0.0
2017-Jul-22 10:00N 60°24' E 005°19'0 0.2
2017-Jul-22 09:30N 60°24' E 005°19'4 8.3
2017-Jul-22 09:00N 60°23' E 005°11'714.0
2017-Jul-22 08:30N 60°28' E 005°00'918.5
2017-Jul-22 08:00N 60°37' E 004°53'917.3
2017-Jul-22 07:30N 60°44' E 004°45'611.8
2017-Jul-22 07:00N 60°47' E 004°34'815.1
2017-Jul-22 06:30N 60°51' E 004°22'815.4
2017-Jul-22 06:00N 60°59' E 004°21'815.3
2017-Jul-22 05:30N 61°07' E 004°21'815.4
2017-Jul-22 05:00N 61°14' E 004°21'816.3
2017-Jul-22 04:30N 61°22' E 004°21'816.4
2017-Jul-22 03:59N 61°31' E 004°21'815.9
2017-Jul-22 03:29N 61°39' E 004°22'815.9
2017-Jul-22 02:59N 61°46' E 004°29'816.1
2017-Jul-22 02:29N 61°53' E 004°35'815.8
2017-Jul-22 02:00N 62°01' E 004°42'816.0
2017-Jul-22 01:30N 62°08' E 004°48'816.2
2017-Jul-22 01:00N 62°15' E 004°56'816.4
2017-Jul-22 00:30N 62°22' E 005°06'816.2
2017-Jul-22 00:00N 62°26' E 005°21'816.0
2017-Jul-21 23:30N 62°30' E 005°36'815.9
2017-Jul-21 23:00N 62°28' E 005°53'713.7
2017-Jul-21 22:30N 62°24' E 006°05'918.0
2017-Jul-21 22:00N 62°25' E 006°24'918.6
2017-Jul-21 21:30N 62°27' E 006°43'815.6
2017-Jul-21 21:00N 62°22' E 006°56'816.3
2017-Jul-21 20:29N 62°14' E 007°01'816.3
2017-Jul-21 20:00N 62°06' E 006°58'612.4
2017-Jul-21 19:30N 62°07' E 007°11'0 0.1
2017-Jul-21 18:59N 62°07' E 007°11'0 0.0
2017-Jul-21 18:29N 62°07' E 007°11'0 0.0
2017-Jul-21 17:59N 62°07' E 007°11'0 0.0
2017-Jul-21 17:29N 62°07' E 007°11'0 0.1
2017-Jul-21 16:59N 62°07' E 007°11'0 0.2
2017-Jul-21 16:30N 62°07' E 007°11'1 2.6
2017-Jul-21 16:00N 62°07' E 007°08'4 8.8
2017-Jul-21 15:30N 62°06' E 006°59'612.3
2017-Jul-21 15:00N 62°12' E 007°02'713.7
2017-Jul-21 14:30N 62°19' E 006°59'713.7
2017-Jul-21 14:00N 62°25' E 006°54'713.3
2017-Jul-21 13:29N 62°27' E 006°40'713.9
2017-Jul-21 13:00N 62°25' E 006°26'713.3
2017-Jul-21 12:30N 62°23' E 006°12'611.4
2017-Jul-21 12:00N 62°26' E 006°01'5 9.4
2017-Jul-21 11:30N 62°28' E 006°11'1 1.5
2017-Jul-21 10:59N 62°28' E 006°09'0 0.0
2017-Jul-21 10:29N 62°28' E 006°09'0 0.0
2017-Jul-21 09:59N 62°28' E 006°09'0 0.0
2017-Jul-21 09:29N 62°28' E 006°09'0 0.0
2017-Jul-21 08:59N 62°28' E 006°09'0 0.0
2017-Jul-21 08:29N 62°28' E 006°09'0 0.0
2017-Jul-21 07:59N 62°28' E 006°09'0 0.0
2017-Jul-21 07:29N 62°28' E 006°09'0 0.0
2017-Jul-21 06:59N 62°28' E 006°09'0 0.0
2017-Jul-21 06:29N 62°28' E 006°09'0 0.0
2017-Jul-21 05:56N 62°28' E 006°09'0 0.0
2017-Jul-21 05:29N 62°28' E 006°09'1 1.8
2017-Jul-21 05:00N 62°27' E 006°10'612.1
2017-Jul-21 04:30N 62°27' E 005°57'511.0
2017-Jul-21 04:00N 62°29' E 005°46'612.1
2017-Jul-21 03:30N 62°34' E 005°38'712.9
2017-Jul-21 03:00N 62°40' E 005°41'817.1
2017-Jul-21 02:30N 62°46' E 005°54'917.3
2017-Jul-21 02:00N 62°53' E 006°06'917.4
2017-Jul-21 01:30N 62°59' E 006°19'917.4
2017-Jul-21 01:00N 63°06' E 006°32'917.4
2017-Jul-21 00:30N 63°12' E 006°45'917.3
2017-Jul-21 00:00N 63°18' E 006°58'917.1
2017-Jul-20 23:30N 63°25' E 007°11'917.6
2017-Jul-20 23:00N 63°31' E 007°24'917.7
2017-Jul-20 22:31N 63°38' E 007°37'917.5
2017-Jul-20 22:00N 63°44' E 007°50'815.2
2017-Jul-20 21:30N 63°50' E 008°02'815.3
2017-Jul-20 21:00N 63°56' E 008°13'815.3
2017-Jul-20 20:27N 64°02' E 008°26'2015.3
2017-Jul-20 19:08N 64°17' E 008°57'3614.9
2017-Jul-20 16:42N 64°36' E 010°08'418.9
2017-Jul-20 16:30N 64°37' E 010°17'918.7
2017-Jul-20 16:00N 64°39' E 010°38'918.7
2017-Jul-20 15:30N 64°44' E 010°57'918.7
2017-Jul-20 15:00N 64°51' E 011°12'1 1.4
2017-Jul-20 14:00N 64°52' E 011°14'0 0.0
2017-Jul-20 13:31N 64°52' E 011°14'0 0.0
2017-Jul-20 13:00N 64°52' E 011°14'0 0.0
2017-Jul-20 12:30N 64°52' E 011°14'0 0.0
2017-Jul-20 12:00N 64°52' E 011°14'0 0.0
2017-Jul-20 11:30N 64°52' E 011°14'0 0.0
2017-Jul-20 11:00N 64°52' E 011°14'0 0.0
2017-Jul-20 10:30N 64°52' E 011°14'2 3.2
2017-Jul-20 10:01N 64°53' E 011°17'612.1
2017-Jul-20 09:31N 64°57' E 011°28'713.6
2017-Jul-20 09:00N 65°01' E 011°40'815.3
2017-Jul-20 08:30N 65°08' E 011°49'815.6
2017-Jul-20 08:01N 65°15' E 011°55'815.6
2017-Jul-20 07:30N 65°22' E 012°02'612.9
2017-Jul-20 07:00N 65°28' E 011°58'816.6
2017-Jul-20 06:30N 65°35' E 012°09'916.9
2017-Jul-20 06:00N 65°43' E 012°17'918.7
2017-Jul-20 05:30N 65°52' E 012°22'918.4
2017-Jul-20 05:01N 66°00' E 012°31'816.5
2017-Jul-20 04:30N 66°07' E 012°44'918.3
2017-Jul-20 04:00N 66°15' E 012°54'918.5
2017-Jul-20 03:30N 66°24' E 012°58'816.9
2017-Jul-20 03:00N 66°32' E 012°58'715.0
2017-Jul-20 02:30N 66°39' E 013°06'918.5
2017-Jul-20 02:00N 66°48' E 013°15'816.2
2017-Jul-20 01:30N 66°54' E 013°28'612.1
2017-Jul-20 01:01N 66°58' E 013°39'918.3
2017-Jul-20 00:30N 67°05' E 013°56'714.5
2017-Jul-20 00:00N 67°11' E 014°04'918.1
2017-Jul-19 23:30N 67°19' E 014°18'917.1
2017-Jul-19 23:00N 67°27' E 014°26'918.4
2017-Jul-19 22:30N 67°35' E 014°16'918.2
2017-Jul-19 22:00N 67°44' E 014°09'918.0
2017-Jul-19 21:30N 67°52' E 014°21'918.4
2017-Jul-19 21:00N 67°59' E 014°36'918.5
2017-Jul-19 20:30N 68°05' E 014°55'918.4
2017-Jul-19 20:00N 68°11' E 015°14'918.2
2017-Jul-19 19:30N 68°13' E 015°37'918.6
2017-Jul-19 19:00N 68°20' E 015°55'714.9
2017-Jul-19 18:30N 68°27' E 016°04'816.3
2017-Jul-19 18:00N 68°33' E 016°17'510.9
2017-Jul-19 17:30N 68°34' E 016°32'714.3
2017-Jul-19 17:00N 68°41' E 016°40'918.8
2017-Jul-19 16:30N 68°49' E 016°51'918.3
2017-Jul-19 16:00N 68°57' E 017°06'918.3
2017-Jul-19 15:30N 69°04' E 017°21'917.8
2017-Jul-19 15:00N 69°08' E 017°43'715.2
2017-Jul-19 14:31N 69°12' E 018°01'611.0
2017-Jul-19 14:00N 69°18' E 017°58'510.9
2017-Jul-19 13:30N 69°23' E 018°05'815.2
2017-Jul-19 13:00N 69°30' E 018°14'918.2
2017-Jul-19 12:30N 69°33' E 018°38'816.1
2017-Jul-19 12:00N 69°38' E 018°56'1 1.9
2017-Jul-19 11:29N 69°39' E 018°58'0 0.0
2017-Jul-19 10:59N 69°39' E 018°58'0 0.0
2017-Jul-19 10:29N 69°39' E 018°58'0 0.0
2017-Jul-19 09:59N 69°39' E 018°58'0 0.0
2017-Jul-19 09:29N 69°39' E 018°58'0 0.0
2017-Jul-19 08:59N 69°39' E 018°58'0 0.0
2017-Jul-19 08:29N 69°39' E 018°58'0 0.0
2017-Jul-19 07:59N 69°39' E 018°58'0 0.0
2017-Jul-19 07:29N 69°39' E 018°58'0 0.0
2017-Jul-19 06:59N 69°39' E 018°58'0 0.0
2017-Jul-19 06:29N 69°39' E 018°58'0 0.0
2017-Jul-19 06:00N 69°39' E 018°58'0 0.0
2017-Jul-19 05:29N 69°39' E 018°58'0 0.0
2017-Jul-19 05:00N 69°39' E 018°58'0 0.2
2017-Jul-19 04:30N 69°39' E 018°58'2 3.8
2017-Jul-19 04:00N 69°39' E 018°53'5 9.7
2017-Jul-19 03:29N 69°43' E 019°00'510.1
2017-Jul-19 03:00N 69°47' E 019°11'510.4
2017-Jul-19 02:30N 69°49' E 019°26'713.3
2017-Jul-19 02:00N 69°51' E 019°44'713.7
2017-Jul-19 01:30N 69°56' E 019°58'714.3
2017-Jul-19 01:00N 69°59' E 020°16'816.5
2017-Jul-19 00:31N 70°02' E 020°39'815.7
2017-Jul-19 00:00N 70°06' E 020°58'916.8
2017-Jul-18 23:29N 70°14' E 021°09'816.0
2017-Jul-18 23:00N 70°19' E 021°27'815.5
2017-Jul-18 22:30N 70°24' E 021°43'815.2
2017-Jul-18 22:00N 70°26' E 022°05'815.6
2017-Jul-18 21:30N 70°28' E 022°27'815.8
2017-Jul-18 21:00N 70°30' E 022°51'714.8
2017-Jul-18 20:30N 70°35' E 023°07'815.2
2017-Jul-18 20:00N 70°41' E 023°21'815.1
2017-Jul-18 19:30N 70°46' E 023°38'815.7
2017-Jul-18 19:00N 70°51' E 023°57'815.4
2017-Jul-18 18:30N 70°56' E 024°15'815.7
2017-Jul-18 18:00N 71°02' E 024°31'714.6
2017-Jul-18 17:29N 70°60' E 024°53'815.5
2017-Jul-18 17:00N 70°59' E 025°17'714.8
2017-Jul-18 16:30N 70°55' E 025°36'815.4
2017-Jul-18 16:00N 70°59' E 025°57'0 0.4
2017-Jul-18 15:28N 70°59' E 025°58'0 0.0
2017-Jul-18 14:58N 70°59' E 025°58'0 0.0
2017-Jul-18 13:58N 70°59' E 025°58'0 0.0
2017-Jul-18 13:28N 70°59' E 025°58'0 0.0
2017-Jul-18 12:58N 70°59' E 025°58'0 0.0
2017-Jul-18 12:28N 70°59' E 025°58'0 0.0
2017-Jul-18 11:58N 70°59' E 025°58'0 0.0
2017-Jul-18 11:28N 70°59' E 025°58'0 0.0
2017-Jul-18 10:58N 70°59' E 025°58'0 0.0
2017-Jul-18 10:28N 70°59' E 025°58'0 0.0
2017-Jul-18 09:58N 70°59' E 025°58'0 0.0
2017-Jul-18 09:28N 70°59' E 025°58'0 0.0
2017-Jul-18 08:58N 70°59' E 025°58'0 0.0
2017-Jul-18 08:28N 70°59' E 025°58'0 0.0
2017-Jul-18 07:58N 70°59' E 025°58'0 0.0
2017-Jul-18 07:28N 70°59' E 025°58'0 0.0
2017-Jul-18 06:58N 70°59' E 025°58'0 0.0
2017-Jul-18 06:28N 70°59' E 025°58'0 0.7
2017-Jul-18 06:00N 70°59' E 025°57'510.9
2017-Jul-18 05:30N 70°59' E 026°13'713.4
2017-Jul-18 05:00N 71°06' E 026°11'1010145484.8
2017-Jul-18 05:00N 71°06' W 025°48'10012026.1
2017-Jul-18 04:30N 71°10' E 025°49'611.8
2017-Jul-18 04:00N 71°15' E 025°38'917.6
2017-Jul-18 03:30N 71°23' E 025°25'  
Track history (hours):
 
Tides and Currents Weather Stations Pressure Air Temp Water Temp Dewpoint Dewpoint Depression Visibility Wind Speed Wind Dir Waves Ship Positions

Albatros

Last reported at 2017-Jul-27 00:02 UTC. Time now 2017-Jul-27 00:35 UTC.
Position N 61°01' E 004°14'.

Length 205.5 m; beam 25.2 m; draft 7.6 m.

Type: Passenger vessel. MMSI: 308784000.

Date/timePositionNaut miles runAvg speedWind from/ knotsBaromVisibWave heightAir tempDewpointWater temp
2017-Jul-27 00:02N 61°01' E 004°14'116.5
2017-Jul-27 00:00N 61°00' E 004°15'816.8
2017-Jul-26 23:31N 60°52' E 004°18'816.7
2017-Jul-26 23:00N 60°44' E 004°21'816.5
2017-Jul-26 22:30N 60°36' E 004°24'816.6
2017-Jul-26 22:00N 60°28' E 004°28'816.9
2017-Jul-26 21:30N 60°19' E 004°32'917.1
2017-Jul-26 21:00N 60°11' E 004°35'816.7
2017-Jul-26 20:30N 60°03' E 004°40'816.5
2017-Jul-26 20:00N 59°59' E 004°54'715.1
2017-Jul-26 19:30N 59°57' E 005°09'713.8
2017-Jul-26 19:01N 59°59' E 005°22'816.0
2017-Jul-26 18:30N 59°52' E 005°32'611.4
2017-Jul-26 18:00N 59°47' E 005°31'1 1.3
2017-Jul-26 17:30N 59°47' E 005°30'0 0.0
2017-Jul-26 17:00N 59°47' E 005°30'0 0.0
2017-Jul-26 16:30N 59°47' E 005°30'0 0.0
2017-Jul-26 16:00N 59°47' E 005°30'0 0.0
2017-Jul-26 15:30N 59°47' E 005°30'0 0.0
2017-Jul-26 15:00N 59°47' E 005°30'0 0.0
2017-Jul-26 14:00N 59°47' E 005°30'0 0.3
2017-Jul-26 13:30N 59°47' E 005°30'5 9.7
2017-Jul-26 13:00N 59°50' E 005°38'816.3
2017-Jul-26 12:30N 59°56' E 005°49'510.8
2017-Jul-26 11:59N 59°59' E 005°58'817.0
2017-Jul-26 11:30N 60°07' E 006°05'815.7
2017-Jul-26 11:00N 60°14' E 006°09'917.6
2017-Jul-26 10:30N 60°22' E 006°19'917.7
2017-Jul-26 10:00N 60°27' E 006°34'815.7
2017-Jul-26 09:30N 60°28' E 006°49'7 1.5
2017-Jul-26 04:31N 60°28' E 007°04'0 0.6
2017-Jul-26 04:29N 60°28' E 007°04'2 3.2
2017-Jul-26 04:00N 60°29' E 007°02'611.4
2017-Jul-26 03:30N 60°29' E 006°50'713.6
2017-Jul-26 03:00N 60°26' E 006°37'816.1
2017-Jul-26 02:30N 60°23' E 006°22'917.3
2017-Jul-26 02:00N 60°16' E 006°12'816.1
2017-Jul-26 01:30N 60°09' E 006°05'816.4
2017-Jul-26 01:00N 60°02' E 005°57'815.5
2017-Jul-26 00:30N 59°56' E 005°46'815.9
2017-Jul-26 00:00N 59°49' E 005°37'815.9
2017-Jul-25 23:30N 59°43' E 005°28'816.1
2017-Jul-25 23:00N 59°37' E 005°17'815.4
2017-Jul-25 22:30N 59°30' E 005°12'815.2
2017-Jul-25 22:00N 59°23' E 005°07'815.8
2017-Jul-25 21:30N 59°15' E 005°06'815.3
2017-Jul-25 21:00N 59°07' E 005°10'612.1
2017-Jul-25 20:31N 59°07' E 005°21'5 9.3
2017-Jul-25 20:01N 59°03' E 005°16'612.0
2017-Jul-25 19:31N 58°58' E 005°11'611.5
2017-Jul-25 19:01N 58°53' E 005°06'5 9.8
2017-Jul-25 18:30N 58°48' E 005°06'510.1
2017-Jul-25 18:01N 58°43' E 005°05'611.1
2017-Jul-25 17:30N 58°37' E 005°05'611.2
2017-Jul-25 17:00N 58°31' E 005°04'611.3
2017-Jul-25 16:30N 58°26' E 005°04'611.6
2017-Jul-25 16:00N 58°20' E 005°03'611.6
2017-Jul-25 15:30N 58°14' E 005°03'611.1
2017-Jul-25 15:00N 58°09' E 005°02'17812.8
2017-Jul-25 01:09N 55°19' E 006°37'213.7
2017-Jul-25 01:00N 55°17' E 006°38'713.7
2017-Jul-25 00:30N 55°10' E 006°43'713.5
2017-Jul-25 00:00N 55°04' E 006°48'713.3
2017-Jul-24 23:30N 54°58' E 006°52'713.1
2017-Jul-24 23:00N 54°52' E 006°57'612.9
2017-Jul-24 22:30N 54°46' E 007°02'712.7
2017-Jul-24 21:55N 54°40' E 007°07'5413.9
2017-Jul-24 18:03N 53°52' E 007°51'111.6
2017-Jul-24 17:58N 53°52' E 007°53'817.2
2017-Jul-24 17:30N 53°50' E 008°06'919.2
2017-Jul-24 17:01N 53°43' E 008°17'1019.5
2017-Jul-24 16:30N 53°37' E 008°30'4 6.9
2017-Jul-24 15:58N 53°33' E 008°33'0 0.0
2017-Jul-24 12:58N 53°33' E 008°33'0 0.0
2017-Jul-24 12:25N 53°33' E 008°33'0 0.0
2017-Jul-24 11:58N 53°33' E 008°33'0 0.0
2017-Jul-24 11:28N 53°33' E 008°33'0 0.0
2017-Jul-24 10:58N 53°33' E 008°33'0 0.0
2017-Jul-24 10:28N 53°33' E 008°33'0 0.0
2017-Jul-24 09:58N 53°33' E 008°33'0 0.0
2017-Jul-24 09:28N 53°33' E 008°33'0 0.0
2017-Jul-24 08:58N 53°33' E 008°33'0 0.0
2017-Jul-24 08:28N 53°33' E 008°33'0 0.0
2017-Jul-24 07:46N 53°33' E 008°33'0 0.0
2017-Jul-24 07:28N 53°33' E 008°33'0 0.0
2017-Jul-24 06:58N 53°33' E 008°33'0 0.0
2017-Jul-24 06:28N 53°33' E 008°33'0 0.0
2017-Jul-24 05:58N 53°33' E 008°33'0 0.0
2017-Jul-24 05:28N 53°33' E 008°33'1 3.0
2017-Jul-24 05:00N 53°35' E 008°32'611.2
2017-Jul-24 04:30N 53°39' E 008°25'714.3
2017-Jul-24 04:00N 53°43' E 008°16'714.3
2017-Jul-24 03:30N 53°48' E 008°08'714.8
2017-Jul-24 03:00N 53°52' E 007°56'713.6
2017-Jul-24 02:30N 53°53' E 007°45'714.9
2017-Jul-24 02:00N 53°59' E 007°37'612.1
2017-Jul-24 01:30N 54°04' E 007°32'4312.5
2017-Jul-23 22:03N 54°40' E 006°52'214.0
2017-Jul-23 21:53N 54°42' E 006°50'614.0
2017-Jul-23 21:30N 54°47' E 006°45'714.1
2017-Jul-23 21:00N 54°53' E 006°38'1213.9
2017-Jul-23 20:09N 55°03' E 006°29'213.7
2017-Jul-23 20:01N 55°05' E 006°28'23112.8
2017-Jul-23 01:57N 58°42' E 004°02'6714.0
2017-Jul-22 21:10N 59°46' E 004°37'214.3
2017-Jul-22 21:00N 59°48' E 004°39'714.2
2017-Jul-22 20:30N 59°55' E 004°45'714.0
2017-Jul-22 20:00N 60°01' E 004°50'713.4
2017-Jul-22 19:30N 60°08' E 004°56'815.5
2017-Jul-22 18:59N 60°11' E 005°10'817.1
2017-Jul-22 18:30N 60°19' E 005°12'510.6
2017-Jul-22 18:00N 60°24' E 005°15'2 3.1
2017-Jul-22 17:30N 60°24' E 005°19'0 0.0
2017-Jul-22 17:00N 60°24' E 005°19'0 0.0
2017-Jul-22 16:30N 60°24' E 005°19'0 0.0
2017-Jul-22 16:00N 60°24' E 005°19'0 0.0
2017-Jul-22 15:30N 60°24' E 005°19'0 0.0
2017-Jul-22 15:00N 60°24' E 005°19'0 0.0
2017-Jul-22 14:00N 60°24' E 005°19'0 0.0
2017-Jul-22 13:30N 60°24' E 005°19'0 0.0
2017-Jul-22 13:00N 60°24' E 005°19'0 0.0
2017-Jul-22 12:30N 60°24' E 005°19'0 0.0
2017-Jul-22 12:00N 60°24' E 005°19'0 0.0
2017-Jul-22 11:30N 60°24' E 005°19'0 0.0
2017-Jul-22 11:00N 60°24' E 005°19'0 0.0
2017-Jul-22 10:30N 60°24' E 005°19'0 0.0
2017-Jul-22 10:00N 60°24' E 005°19'0 0.2
2017-Jul-22 09:30N 60°24' E 005°19'4 8.3
2017-Jul-22 09:00N 60°23' E 005°11'714.0
2017-Jul-22 08:30N 60°28' E 005°00'918.5
2017-Jul-22 08:00N 60°37' E 004°53'917.3
2017-Jul-22 07:30N 60°44' E 004°45'611.8
2017-Jul-22 07:00N 60°47' E 004°34'815.1
2017-Jul-22 06:30N 60°51' E 004°22'815.4
2017-Jul-22 06:00N 60°59' E 004°21'815.3
2017-Jul-22 05:30N 61°07' E 004°21'815.4
2017-Jul-22 05:00N 61°14' E 004°21'816.3
2017-Jul-22 04:30N 61°22' E 004°21'816.4
2017-Jul-22 03:59N 61°31' E 004°21'815.9
2017-Jul-22 03:29N 61°39' E 004°22'815.9
2017-Jul-22 02:59N 61°46' E 004°29'816.1
2017-Jul-22 02:29N 61°53' E 004°35'815.8
2017-Jul-22 02:00N 62°01' E 004°42'816.0
2017-Jul-22 01:30N 62°08' E 004°48'816.2
2017-Jul-22 01:00N 62°15' E 004°56'816.4
2017-Jul-22 00:30N 62°22' E 005°06'816.2
2017-Jul-22 00:00N 62°26' E 005°21'816.0
2017-Jul-21 23:30N 62°30' E 005°36'815.9
2017-Jul-21 23:00N 62°28' E 005°53'713.7
2017-Jul-21 22:30N 62°24' E 006°05'918.0
2017-Jul-21 22:00N 62°25' E 006°24'918.6
2017-Jul-21 21:30N 62°27' E 006°43'815.6
2017-Jul-21 21:00N 62°22' E 006°56'816.3
2017-Jul-21 20:29N 62°14' E 007°01'816.3
2017-Jul-21 20:00N 62°06' E 006°58'612.4
2017-Jul-21 19:30N 62°07' E 007°11'0 0.1
2017-Jul-21 18:59N 62°07' E 007°11'0 0.0
2017-Jul-21 18:29N 62°07' E 007°11'0 0.0
2017-Jul-21 17:59N 62°07' E 007°11'0 0.0
2017-Jul-21 17:29N 62°07' E 007°11'0 0.1
2017-Jul-21 16:59N 62°07' E 007°11'0 0.2
2017-Jul-21 16:30N 62°07' E 007°11'1 2.6
2017-Jul-21 16:00N 62°07' E 007°08'4 8.8
2017-Jul-21 15:30N 62°06' E 006°59'612.3
2017-Jul-21 15:00N 62°12' E 007°02'713.7
2017-Jul-21 14:30N 62°19' E 006°59'713.7
2017-Jul-21 14:00N 62°25' E 006°54'713.3
2017-Jul-21 13:29N 62°27' E 006°40'713.9
2017-Jul-21 13:00N 62°25' E 006°26'713.3
2017-Jul-21 12:30N 62°23' E 006°12'611.4
2017-Jul-21 12:00N 62°26' E 006°01'5 9.4
2017-Jul-21 11:30N 62°28' E 006°11'1 1.5
2017-Jul-21 10:59N 62°28' E 006°09'0 0.0
2017-Jul-21 10:29N 62°28' E 006°09'0 0.0
2017-Jul-21 09:59N 62°28' E 006°09'0 0.0
2017-Jul-21 09:29N 62°28' E 006°09'0 0.0
2017-Jul-21 08:59N 62°28' E 006°09'0 0.0
2017-Jul-21 08:29N 62°28' E 006°09'0 0.0
2017-Jul-21 07:59N 62°28' E 006°09'0 0.0
2017-Jul-21 07:29N 62°28' E 006°09'0 0.0
2017-Jul-21 06:59N 62°28' E 006°09'0 0.0
2017-Jul-21 06:29N 62°28' E 006°09'0 0.0
2017-Jul-21 05:56N 62°28' E 006°09'0 0.0
2017-Jul-21 05:29N 62°28' E 006°09'1 1.8
2017-Jul-21 05:00N 62°27' E 006°10'612.1
2017-Jul-21 04:30N 62°27' E 005°57'511.0
2017-Jul-21 04:00N 62°29' E 005°46'612.1
2017-Jul-21 03:30N 62°34' E 005°38'712.9
2017-Jul-21 03:00N 62°40' E 005°41'817.1
2017-Jul-21 02:30N 62°46' E 005°54'917.3
2017-Jul-21 02:00N 62°53' E 006°06'917.4
2017-Jul-21 01:30N 62°59' E 006°19'917.4
2017-Jul-21 01:00N 63°06' E 006°32'917.4
2017-Jul-21 00:30N 63°12' E 006°45'917.3
2017-Jul-21 00:00N 63°18' E 006°58'917.1
2017-Jul-20 23:30N 63°25' E 007°11'917.6
2017-Jul-20 23:00N 63°31' E 007°24'917.7
2017-Jul-20 22:31N 63°38' E 007°37'917.5
2017-Jul-20 22:00N 63°44' E 007°50'815.2
2017-Jul-20 21:30N 63°50' E 008°02'815.3
2017-Jul-20 21:00N 63°56' E 008°13'815.3
2017-Jul-20 20:27N 64°02' E 008°26'2015.3
2017-Jul-20 19:08N 64°17' E 008°57'3614.9
2017-Jul-20 16:42N 64°36' E 010°08'418.9
2017-Jul-20 16:30N 64°37' E 010°17'918.7
2017-Jul-20 16:00N 64°39' E 010°38'918.7
2017-Jul-20 15:30N 64°44' E 010°57'918.7
2017-Jul-20 15:00N 64°51' E 011°12'1 1.4
2017-Jul-20 14:00N 64°52' E 011°14'0 0.0
2017-Jul-20 13:31N 64°52' E 011°14'0 0.0
2017-Jul-20 13:00N 64°52' E 011°14'0 0.0
2017-Jul-20 12:30N 64°52' E 011°14'0 0.0
2017-Jul-20 12:00N 64°52' E 011°14'0 0.0
2017-Jul-20 11:30N 64°52' E 011°14'0 0.0
2017-Jul-20 11:00N 64°52' E 011°14'0 0.0
2017-Jul-20 10:30N 64°52' E 011°14'2 3.2
2017-Jul-20 10:01N 64°53' E 011°17'612.1
2017-Jul-20 09:31N 64°57' E 011°28'713.6
2017-Jul-20 09:00N 65°01' E 011°40'815.3
2017-Jul-20 08:30N 65°08' E 011°49'815.6
2017-Jul-20 08:01N 65°15' E 011°55'815.6
2017-Jul-20 07:30N 65°22' E 012°02'612.9
2017-Jul-20 07:00N 65°28' E 011°58'816.6
2017-Jul-20 06:30N 65°35' E 012°09'916.9
2017-Jul-20 06:00N 65°43' E 012°17'918.7
2017-Jul-20 05:30N 65°52' E 012°22'918.4
2017-Jul-20 05:01N 66°00' E 012°31'816.5
2017-Jul-20 04:30N 66°07' E 012°44'918.3
2017-Jul-20 04:00N 66°15' E 012°54'918.5
2017-Jul-20 03:30N 66°24' E 012°58'816.9
2017-Jul-20 03:00N 66°32' E 012°58'715.0
2017-Jul-20 02:30N 66°39' E 013°06'918.5
2017-Jul-20 02:00N 66°48' E 013°15'816.2
2017-Jul-20 01:30N 66°54' E 013°28'612.1
2017-Jul-20 01:01N 66°58' E 013°39'918.3
2017-Jul-20 00:30N 67°05' E 013°56'714.5
2017-Jul-20 00:00N 67°11' E 014°04'918.1
2017-Jul-19 23:30N 67°19' E 014°18'917.1
2017-Jul-19 23:00N 67°27' E 014°26'918.4
2017-Jul-19 22:30N 67°35' E 014°16'918.2
2017-Jul-19 22:00N 67°44' E 014°09'918.0
2017-Jul-19 21:30N 67°52' E 014°21'918.4
2017-Jul-19 21:00N 67°59' E 014°36'918.5
2017-Jul-19 20:30N 68°05' E 014°55'918.4
2017-Jul-19 20:00N 68°11' E 015°14'918.2
2017-Jul-19 19:30N 68°13' E 015°37'918.6
2017-Jul-19 19:00N 68°20' E 015°55'714.9
2017-Jul-19 18:30N 68°27' E 016°04'816.3
2017-Jul-19 18:00N 68°33' E 016°17'510.9
2017-Jul-19 17:30N 68°34' E 016°32'714.3
2017-Jul-19 17:00N 68°41' E 016°40'918.8
2017-Jul-19 16:30N 68°49' E 016°51'918.3
2017-Jul-19 16:00N 68°57' E 017°06'918.3
2017-Jul-19 15:30N 69°04' E 017°21'917.8
2017-Jul-19 15:00N 69°08' E 017°43'715.2
2017-Jul-19 14:31N 69°12' E 018°01'611.0
2017-Jul-19 14:00N 69°18' E 017°58'510.9
2017-Jul-19 13:30N 69°23' E 018°05'815.2
2017-Jul-19 13:00N 69°30' E 018°14'918.2
2017-Jul-19 12:30N 69°33' E 018°38'816.1
2017-Jul-19 12:00N 69°38' E 018°56'1 1.9
2017-Jul-19 11:29N 69°39' E 018°58'0 0.0
2017-Jul-19 10:59N 69°39' E 018°58'0 0.0
2017-Jul-19 10:29N 69°39' E 018°58'0 0.0
2017-Jul-19 09:59N 69°39' E 018°58'0 0.0
2017-Jul-19 09:29N 69°39' E 018°58'0 0.0
2017-Jul-19 08:59N 69°39' E 018°58'0 0.0
2017-Jul-19 08:29N 69°39' E 018°58'0 0.0
2017-Jul-19 07:59N 69°39' E 018°58'0 0.0
2017-Jul-19 07:29N 69°39' E 018°58'0 0.0
2017-Jul-19 06:59N 69°39' E 018°58'0 0.0
2017-Jul-19 06:29N 69°39' E 018°58'0 0.0
2017-Jul-19 06:00N 69°39' E 018°58'0 0.0
2017-Jul-19 05:29N 69°39' E 018°58'0 0.0
2017-Jul-19 05:00N 69°39' E 018°58'0 0.2
2017-Jul-19 04:30N 69°39' E 018°58'2 3.8
2017-Jul-19 04:00N 69°39' E 018°53'5 9.7
2017-Jul-19 03:29N 69°43' E 019°00'510.1
2017-Jul-19 03:00N 69°47' E 019°11'510.4
2017-Jul-19 02:30N 69°49' E 019°26'713.3
2017-Jul-19 02:00N 69°51' E 019°44'713.7
2017-Jul-19 01:30N 69°56' E 019°58'714.3
2017-Jul-19 01:00N 69°59' E 020°16'816.5
2017-Jul-19 00:31N 70°02' E 020°39'815.7
2017-Jul-19 00:00N 70°06' E 020°58'916.8
2017-Jul-18 23:29N 70°14' E 021°09'816.0
2017-Jul-18 23:00N 70°19' E 021°27'815.5
2017-Jul-18 22:30N 70°24' E 021°43'815.2
2017-Jul-18 22:00N 70°26' E 022°05'815.6
2017-Jul-18 21:30N 70°28' E 022°27'815.8
2017-Jul-18 21:00N 70°30' E 022°51'714.8
2017-Jul-18 20:30N 70°35' E 023°07'815.2
2017-Jul-18 20:00N 70°41' E 023°21'815.1
2017-Jul-18 19:30N 70°46' E 023°38'815.7
2017-Jul-18 19:00N 70°51' E 023°57'815.4
2017-Jul-18 18:30N 70°56' E 024°15'815.7
2017-Jul-18 18:00N 71°02' E 024°31'714.6
2017-Jul-18 17:29N 70°60' E 024°53'815.5
2017-Jul-18 17:00N 70°59' E 025°17'714.8
2017-Jul-18 16:30N 70°55' E 025°36'815.4
2017-Jul-18 16:00N 70°59' E 025°57'0 0.4
2017-Jul-18 15:28N 70°59' E 025°58'0 0.0
2017-Jul-18 14:58N 70°59' E 025°58'0 0.0
2017-Jul-18 13:58N 70°59' E 025°58'0 0.0
2017-Jul-18 13:28N 70°59' E 025°58'0 0.0
2017-Jul-18 12:58N 70°59' E 025°58'0 0.0
2017-Jul-18 12:28N 70°59' E 025°58'0 0.0
2017-Jul-18 11:58N 70°59' E 025°58'0 0.0
2017-Jul-18 11:28N 70°59' E 025°58'0 0.0
2017-Jul-18 10:58N 70°59' E 025°58'0 0.0
2017-Jul-18 10:28N 70°59' E 025°58'0 0.0
2017-Jul-18 09:58N 70°59' E 025°58'0 0.0
2017-Jul-18 09:28N 70°59' E 025°58'0 0.0
2017-Jul-18 08:58N 70°59' E 025°58'0 0.0
2017-Jul-18 08:28N 70°59' E 025°58'0 0.0
2017-Jul-18 07:58N 70°59' E 025°58'0 0.0
2017-Jul-18 07:28N 70°59' E 025°58'0 0.0
2017-Jul-18 06:58N 70°59' E 025°58'0 0.0
2017-Jul-18 06:28N 70°59' E 025°58'0 0.7
2017-Jul-18 06:00N 70°59' E 025°57'510.9
2017-Jul-18 05:30N 70°59' E 026°13'713.4
2017-Jul-18 05:00N 71°06' E 026°11'1010145484.8
2017-Jul-18 05:00N 71°06' W 025°48'10012026.1
2017-Jul-18 04:30N 71°10' E 025°49'611.8
2017-Jul-18 04:00N 71°15' E 025°38'917.6
2017-Jul-18 03:30N 71°23' E 025°25'  

Dump ship's entire track history